createdAt,value
2018-05-13T00:01:34.908Z,99932.57
2018-05-13T00:04:02.185Z,99923.08
2018-05-13T00:06:29.153Z,99924.69
2018-05-13T00:08:56.191Z,99925.75
2018-05-13T00:11:24.106Z,99935.23
2018-05-13T00:13:51.182Z,99951.12
2018-05-13T00:16:18.211Z,99981.56
2018-05-13T00:18:45.527Z,99981.27
2018-05-13T00:21:12.610Z,99974.86
2018-05-13T00:23:39.682Z,99995.27
2018-05-13T00:26:06.706Z,100005.94
2018-05-13T00:28:33.702Z,100002.44
2018-05-13T00:31:00.780Z,99994.03
2018-05-13T00:33:27.835Z,99985.39
2018-05-13T00:35:54.814Z,99976.00
2018-05-13T00:38:21.822Z,99977.89
2018-05-13T00:40:48.767Z,99972.97
2018-05-13T00:43:15.730Z,99973.43
2018-05-13T00:48:23.338Z,99973.46
2018-05-13T00:50:50.305Z,99968.91
2018-05-13T00:53:17.308Z,99969.25
2018-05-13T00:55:44.588Z,99966.03
2018-05-13T00:58:11.581Z,99964.19
2018-05-13T01:00:38.635Z,99958.75
2018-05-13T01:03:05.878Z,99952.65
2018-05-13T01:05:32.960Z,99951.91
2018-05-13T01:08:07.459Z,99958.31
2018-05-13T01:10:34.680Z,99955.82
2018-05-13T01:13:01.599Z,99948.90
2018-05-13T01:15:28.551Z,99952.95
2018-05-13T01:17:55.484Z,99944.34
2018-05-13T01:20:22.468Z,99945.97
2018-05-13T01:22:49.424Z,99943.59
2018-05-13T01:25:16.372Z,99945.97
2018-05-13T01:27:43.320Z,99949.29
2018-05-13T01:30:10.278Z,99949.02
2018-05-13T01:32:37.239Z,99954.24
2018-05-13T01:35:04.189Z,99948.27
2018-05-13T01:37:31.140Z,99942.08
2018-05-13T01:39:58.081Z,99937.77
2018-05-13T01:42:25.027Z,99942.38
2018-05-13T01:44:51.971Z,99935.85
2018-05-13T01:47:18.921Z,99929.52
2018-05-13T01:49:45.860Z,99928.77
2018-05-13T01:52:12.800Z,99921.37
2018-05-13T01:54:39.746Z,99917.38
2018-05-13T01:57:06.746Z,99918.45
2018-05-13T01:59:33.629Z,99908.66
2018-05-13T02:02:00.575Z,99911.75
2018-05-13T02:04:27.535Z,99908.36
2018-05-13T02:06:55.356Z,99911.80
2018-05-13T02:09:22.299Z,99905.10
2018-05-13T02:11:49.239Z,99907.73
2018-05-13T02:14:16.183Z,99900.03
2018-05-13T02:16:43.122Z,99899.17
2018-05-13T02:19:10.070Z,99898.11
2018-05-13T02:21:37.011Z,99892.30
2018-05-13T02:24:03.959Z,99893.34
2018-05-13T02:26:30.900Z,99889.02
2018-05-13T02:28:57.831Z,99894.63
2018-05-13T02:31:24.779Z,99888.08
2018-05-13T02:33:51.721Z,99895.09
2018-05-13T02:36:18.668Z,99896.81
2018-05-13T02:38:45.607Z,99896.20
2018-05-13T02:41:12.543Z,99893.70
2018-05-13T02:43:39.494Z,99899.19
2018-05-13T02:46:06.435Z,99899.78
2018-05-13T02:48:33.375Z,99902.25
2018-05-13T02:51:00.337Z,99904.45
2018-05-13T02:53:27.297Z,99903.98
2018-05-13T02:55:54.272Z,99905.94
2018-05-13T02:58:21.248Z,99905.77
2018-05-13T03:00:48.196Z,99913.09
2018-05-13T03:03:15.136Z,99919.56
2018-05-13T03:05:42.075Z,99918.72
2018-05-13T03:08:09.008Z,99916.62
2018-05-13T03:10:35.955Z,99925.34
2018-05-13T03:13:02.893Z,99934.53
2018-05-13T03:15:29.849Z,99944.39
2018-05-13T03:17:56.778Z,99943.78
2018-05-13T03:20:23.731Z,99945.75
2018-05-13T03:22:50.673Z,99951.47
2018-05-13T03:25:17.627Z,99950.22
2018-05-13T03:30:48.465Z,99958.38
2018-05-13T03:33:15.419Z,99967.02
2018-05-13T03:35:42.376Z,99965.00
2018-05-13T03:38:09.321Z,99967.02
2018-05-13T03:40:36.271Z,99974.80
2018-05-13T03:43:03.212Z,99971.22
2018-05-13T03:45:30.162Z,99968.81
2018-05-13T03:47:57.107Z,99977.19
2018-05-13T03:50:24.055Z,99999.66
2018-05-13T03:52:50.995Z,99994.02
2018-05-13T03:55:17.951Z,100000.49
2018-05-13T03:57:44.892Z,99993.94
2018-05-13T04:00:11.834Z,99982.79
2018-05-13T04:02:38.774Z,99991.24
2018-05-13T04:05:05.732Z,99981.61
2018-05-13T04:07:32.670Z,99967.03
2018-05-13T04:10:05.383Z,99963.30
2018-05-13T04:12:38.211Z,99959.50
2018-05-13T04:15:10.984Z,99964.23
2018-05-13T04:17:38.459Z,99968.73
2018-05-13T04:20:05.409Z,99956.47
2018-05-13T04:22:32.340Z,99967.91
2018-05-13T04:24:59.352Z,99971.61
2018-05-13T04:27:26.273Z,99966.67
2018-05-13T04:29:53.219Z,99958.30
2018-05-13T04:32:20.158Z,99953.11
2018-05-13T04:34:47.090Z,99948.80
2018-05-13T04:37:14.043Z,99946.75
2018-05-13T04:39:40.989Z,99948.02
2018-05-13T04:42:07.929Z,99938.91
2018-05-13T04:44:34.958Z,99939.03
2018-05-13T04:47:01.828Z,99941.89
2018-05-13T04:49:28.769Z,99938.30
2018-05-13T04:51:55.724Z,99934.92
2018-05-13T04:54:22.655Z,99930.33
2018-05-13T04:56:49.653Z,99936.27
2018-05-13T04:59:16.571Z,99936.76
2018-05-13T05:01:43.518Z,99933.16
2018-05-13T05:04:10.461Z,99931.98
2018-05-13T05:06:37.403Z,99927.68
2018-05-13T05:09:04.347Z,99934.14
2018-05-13T05:11:31.305Z,99933.27
2018-05-13T05:13:58.256Z,99936.20
2018-05-13T05:16:25.199Z,99936.52
2018-05-13T05:18:52.143Z,99938.50
2018-05-13T05:21:19.092Z,99936.06
2018-05-13T05:23:46.036Z,99933.64
2018-05-13T05:26:12.983Z,99941.53
2018-05-13T05:28:39.920Z,99939.41
2018-05-13T05:31:06.867Z,99941.88
2018-05-13T05:33:33.803Z,99938.55
2018-05-13T05:36:00.748Z,99942.52
2018-05-13T05:38:27.689Z,99940.86
2018-05-13T05:40:54.633Z,99949.23
2018-05-13T05:43:21.571Z,99956.15
2018-05-13T05:45:48.532Z,99965.48
2018-05-13T05:48:15.478Z,99961.55
2018-05-13T05:50:42.423Z,99967.20
2018-05-13T05:53:09.367Z,99963.80
2018-05-13T05:55:36.315Z,99965.96
2018-05-13T05:58:03.256Z,99960.23
2018-05-13T06:00:30.223Z,99957.34
2018-05-13T06:02:57.169Z,99961.55
2018-05-13T06:05:24.114Z,99955.06
2018-05-13T06:07:51.057Z,99956.30
2018-05-13T06:10:18.006Z,99952.14
2018-05-13T06:12:44.992Z,99954.80
2018-05-13T06:15:11.970Z,99950.56
2018-05-13T06:17:38.890Z,99951.48
2018-05-13T06:20:05.839Z,99947.61
2018-05-13T06:22:32.788Z,99949.67
2018-05-13T06:24:59.731Z,99953.50
2018-05-13T06:27:27.192Z,99958.14
2018-05-13T06:29:54.335Z,99954.53
2018-05-13T06:32:21.280Z,99958.72
2018-05-13T06:34:48.247Z,99949.75
2018-05-13T06:37:15.191Z,99956.97
2018-05-13T06:39:42.180Z,99948.33
2018-05-13T06:42:09.091Z,99948.47
2018-05-13T06:44:36.042Z,99942.59
2018-05-13T06:47:03.043Z,99934.81
2018-05-13T06:49:29.987Z,99936.21
2018-05-13T06:51:56.931Z,99935.27
2018-05-13T06:54:23.875Z,99936.46
2018-05-13T06:56:50.819Z,99933.21
2018-05-13T06:59:17.764Z,99934.56
2018-05-13T07:01:44.732Z,99937.81
2018-05-13T07:04:11.673Z,99941.64
2018-05-13T07:06:38.616Z,99940.03
2018-05-13T07:09:05.560Z,99937.17
2018-05-13T07:11:32.506Z,99937.16
2018-05-13T07:13:59.446Z,99934.20
2018-05-13T07:16:26.488Z,99928.38
2018-05-13T07:18:53.342Z,99930.27
2018-05-13T07:21:20.290Z,99923.36
2018-05-13T07:23:47.234Z,99927.97
2018-05-13T07:26:14.195Z,99932.73
2018-05-13T07:28:41.149Z,99930.28
2018-05-13T07:31:08.101Z,99930.70
2018-05-13T07:33:35.036Z,99928.78
2018-05-13T07:36:01.979Z,99929.75
2018-05-13T07:38:29.121Z,99929.45
2018-05-13T07:40:56.048Z,99926.55
2018-05-13T07:43:23.004Z,99927.65
2018-05-13T07:45:50.012Z,99930.59
2018-05-13T07:48:16.969Z,99935.21
2018-05-13T07:50:43.914Z,99931.09
2018-05-13T07:53:10.861Z,99929.31
2018-05-13T07:55:37.886Z,99930.95
2018-05-13T07:58:04.823Z,99930.75
2018-05-13T08:00:31.763Z,99931.91
2018-05-13T08:02:58.781Z,99935.98
2018-05-13T08:05:25.771Z,99932.42
2018-05-13T08:07:52.747Z,99931.52
2018-05-13T08:10:19.713Z,99933.13
2018-05-13T08:12:46.684Z,99932.84
2018-05-13T08:15:13.611Z,99931.80
2018-05-13T08:17:40.579Z,99928.10
2018-05-13T08:20:07.523Z,99928.69
2018-05-13T08:22:34.453Z,99931.57
2018-05-13T08:25:01.396Z,99930.05
2018-05-13T08:27:28.354Z,99932.94
2018-05-13T08:29:55.286Z,99942.80
2018-05-13T08:32:22.231Z,99931.34
2018-05-13T08:34:49.173Z,99924.52
2018-05-13T08:37:16.114Z,99930.71
2018-05-13T08:39:43.058Z,99928.61
2018-05-13T08:42:10.009Z,99918.43
2018-05-13T08:44:36.944Z,99918.67
2018-05-13T08:47:03.888Z,99909.53
2018-05-13T08:49:30.825Z,99917.91
2018-05-13T08:51:57.770Z,99924.52
2018-05-13T08:54:24.732Z,99915.89
2018-05-13T08:56:51.667Z,99908.23
2018-05-13T08:59:18.666Z,99912.76
2018-05-13T09:01:45.633Z,99907.94
2018-05-13T09:04:12.692Z,99907.20
2018-05-13T09:11:53.964Z,99915.55
2018-05-13T09:14:21.345Z,99914.84
2018-05-13T09:57:12.984Z,99883.02
2018-05-13T09:59:40.343Z,99879.59
2018-05-13T10:02:07.765Z,99866.03
2018-05-13T10:04:35.148Z,99870.45
2018-05-13T10:07:02.629Z,99869.08
2018-05-13T10:09:30.075Z,99868.06
2018-05-13T10:11:57.471Z,99873.39
2018-05-13T10:14:24.867Z,99874.05
2018-05-13T10:16:52.324Z,99878.97
2018-05-13T10:19:19.767Z,99872.36
2018-05-13T10:21:47.147Z,99859.93
2018-05-13T10:24:14.527Z,99873.88
2018-05-13T10:26:41.969Z,99867.89
2018-05-13T10:29:09.344Z,99870.41
2018-05-13T10:31:36.732Z,99868.06
2018-05-13T10:34:04.104Z,99869.34
2018-05-13T10:36:31.620Z,99872.03
2018-05-13T10:38:58.914Z,99866.11
2018-05-13T10:41:26.296Z,99869.14
2018-05-13T10:43:53.667Z,99870.67
2018-05-13T10:46:21.057Z,99861.68
2018-05-13T10:48:48.452Z,99860.61
2018-05-13T10:51:16.741Z,99858.84
2018-05-13T10:53:44.129Z,99857.56
2018-05-13T10:56:11.509Z,99859.42
2018-05-13T10:58:38.892Z,99863.02
2018-05-13T11:01:06.272Z,99859.25
2018-05-13T11:03:33.680Z,99862.42
2018-05-13T11:06:01.049Z,99856.52
2018-05-13T11:08:28.436Z,99857.65
2018-05-13T11:10:55.811Z,99852.42
2018-05-13T11:13:23.395Z,99852.62
2018-05-13T11:15:50.760Z,99845.75
2018-05-13T11:18:18.151Z,99852.30
2018-05-13T11:20:45.634Z,99850.66
2018-05-13T11:23:12.920Z,99853.81
2018-05-13T11:25:40.304Z,99857.50
2018-05-13T11:28:07.695Z,99849.58
2018-05-13T11:30:35.079Z,99851.98
2018-05-13T11:33:02.667Z,99848.75
2018-05-13T11:35:30.066Z,99856.13
2018-05-13T11:37:57.431Z,99845.80
2018-05-13T11:40:24.812Z,99845.82
2018-05-13T11:42:52.234Z,99847.83
2018-05-13T11:45:19.624Z,99846.55
2018-05-13T11:47:47.024Z,99841.31
2018-05-13T11:50:14.404Z,99837.66
2018-05-13T11:52:41.788Z,99828.83
2018-05-13T11:55:09.179Z,99825.99
2018-05-13T11:57:36.575Z,99833.49
2018-05-13T12:00:03.973Z,99833.64
2018-05-13T12:02:31.375Z,99820.63
2018-05-13T12:04:58.739Z,99820.06
2018-05-13T12:07:26.137Z,99809.42
2018-05-13T12:09:53.515Z,99814.16
2018-05-13T12:12:20.903Z,99809.32
2018-05-13T12:14:48.310Z,99811.64
2018-05-13T12:17:15.692Z,99811.73
2018-05-13T12:19:43.081Z,99799.82
2018-05-13T12:22:10.491Z,99788.20
2018-05-13T12:24:37.894Z,99789.27
2018-05-13T12:27:05.323Z,99779.28
2018-05-13T12:29:32.682Z,99780.37
2018-05-13T12:32:00.114Z,99780.92
2018-05-13T12:34:27.495Z,99776.55
2018-05-13T12:36:54.951Z,99781.75
2018-05-13T12:39:22.355Z,99781.90
2018-05-13T12:41:49.731Z,99783.35
2018-05-13T12:44:17.129Z,99777.70
2018-05-13T12:46:44.528Z,99778.08
2018-05-13T12:49:12.740Z,99774.94
2018-05-13T12:51:40.161Z,99783.27
2018-05-13T12:54:07.601Z,99785.13
2018-05-13T12:56:35.296Z,99773.48
2018-05-13T12:59:02.715Z,99775.56
2018-05-13T13:03:42.304Z,99770.41
2018-05-13T13:06:09.625Z,99778.84
2018-05-13T13:08:36.997Z,99776.55
2018-05-13T13:11:04.393Z,99779.94
2018-05-13T13:13:31.790Z,99776.03
2018-05-13T13:15:59.842Z,99776.02
2018-05-13T13:18:27.221Z,99774.38
2018-05-13T13:20:54.596Z,99768.52
2018-05-13T13:23:21.985Z,99775.45
2018-05-13T13:25:49.372Z,99767.63
2018-05-13T13:28:29.194Z,99765.14
2018-05-13T13:30:59.263Z,99766.34
2018-05-13T13:33:31.891Z,99759.61
2018-05-13T13:35:59.284Z,99746.01
2018-05-13T13:38:26.688Z,99737.09
2018-05-13T13:40:54.091Z,99743.94
2018-05-13T13:43:21.461Z,99731.77
2018-05-13T13:45:48.855Z,99735.64
2018-05-13T13:48:16.247Z,99729.13
2018-05-13T13:50:43.619Z,99728.91
2018-05-13T13:53:10.987Z,99728.16
2018-05-13T13:55:38.485Z,99725.34
2018-05-13T13:58:05.885Z,99721.11
2018-05-13T14:00:33.259Z,99714.93
2018-05-13T14:03:00.644Z,99717.15
2018-05-13T14:05:28.040Z,99712.97
2018-05-13T14:07:55.414Z,99709.75
2018-05-13T14:10:22.813Z,99712.97
2018-05-13T14:12:50.219Z,99725.78
2018-05-13T14:15:18.599Z,99720.91
2018-05-13T14:17:45.968Z,99718.09
2018-05-13T14:20:13.439Z,99725.49
2018-05-13T14:22:40.759Z,99727.53
2018-05-13T14:25:08.140Z,99725.22
2018-05-13T14:27:35.540Z,99738.48
2018-05-13T14:30:02.942Z,99732.34
2018-05-13T14:32:30.309Z,99729.94
2018-05-13T14:34:57.693Z,99736.59
2018-05-13T14:37:25.091Z,99734.30
2018-05-13T14:39:52.568Z,99729.34
2018-05-13T14:42:19.858Z,99726.98
2018-05-13T14:44:47.248Z,99737.03
2018-05-13T14:47:14.644Z,99748.93
2018-05-13T14:49:42.057Z,99747.08
2018-05-13T14:52:09.429Z,99749.39
2018-05-13T14:54:36.816Z,99751.39
2018-05-13T14:57:04.210Z,99754.81
2018-05-13T14:59:31.588Z,99753.42
2018-05-13T15:01:58.997Z,99756.17
2018-05-13T15:04:26.385Z,99759.45
2018-05-13T15:06:53.768Z,99753.12
2018-05-13T15:09:22.152Z,99753.66
2018-05-13T15:11:48.536Z,99756.77
2018-05-13T15:14:15.917Z,99759.88
2018-05-13T15:16:43.344Z,99758.84
2018-05-13T15:19:10.676Z,99766.06
2018-05-13T15:21:38.075Z,99759.49
2018-05-13T15:24:05.451Z,99754.16
2018-05-13T15:26:32.887Z,99740.66
2018-05-13T15:29:00.261Z,99733.87
2018-05-13T15:31:27.623Z,99735.44
2018-05-13T15:33:55.007Z,99728.84
2018-05-13T15:36:22.401Z,99728.39
2018-05-13T15:38:50.988Z,99723.12
2018-05-13T15:41:18.359Z,99717.78
2018-05-13T15:43:45.753Z,99722.71
2018-05-13T15:46:13.160Z,99723.72
2018-05-13T15:48:40.539Z,99724.08
2018-05-13T15:51:07.917Z,99716.44
2018-05-13T15:53:35.307Z,99709.34
2018-05-13T15:56:02.684Z,99704.08
2018-05-13T15:58:30.067Z,99702.03
2018-05-13T16:00:57.445Z,99701.22
2018-05-13T16:03:24.831Z,99696.09
2018-05-13T16:05:52.204Z,99699.11
2018-05-13T16:08:19.583Z,99709.11
2018-05-13T16:10:46.965Z,99714.27
2018-05-13T16:13:14.352Z,99716.50
2018-05-13T16:15:41.731Z,99711.92
2018-05-13T16:18:09.128Z,99725.88
2018-05-13T16:20:36.511Z,99729.06
2018-05-13T16:23:03.921Z,99737.48
2018-05-13T16:25:31.315Z,99750.98
2018-05-13T16:27:58.699Z,99747.45
2018-05-13T16:30:26.108Z,99753.47
2018-05-13T16:32:53.484Z,99766.54
2018-05-13T16:35:21.823Z,99766.58
2018-05-13T16:37:49.230Z,99769.25
2018-05-13T16:40:16.604Z,99767.59
2018-05-13T16:42:43.982Z,99779.19
2018-05-13T16:45:11.360Z,99778.84
2018-05-13T16:47:38.752Z,99785.03
2018-05-13T16:50:06.141Z,99769.30
2018-05-13T16:52:33.519Z,99764.86
2018-05-13T16:55:00.903Z,99766.63
2018-05-13T16:57:28.280Z,99762.59
2018-05-13T16:59:55.667Z,99754.77
2018-05-13T17:02:23.591Z,99757.02
2018-05-13T17:04:50.956Z,99747.59
2018-05-13T17:07:18.324Z,99744.47
2018-05-13T17:09:45.715Z,99747.02
2018-05-13T17:12:13.711Z,99744.16
2018-05-13T17:14:41.107Z,99742.15
2018-05-13T17:17:08.557Z,99742.98
2018-05-13T17:19:35.858Z,99743.38
2018-05-13T17:22:03.254Z,99742.98
2018-05-13T17:24:30.632Z,99742.81
2018-05-13T17:26:58.022Z,99749.23
2018-05-13T17:29:25.416Z,99741.08
2018-05-13T17:31:53.264Z,99738.77
2018-05-13T17:34:20.670Z,99736.72
2018-05-13T17:36:48.060Z,99732.66
2018-05-13T17:39:15.462Z,99729.81
2018-05-13T17:41:42.836Z,99731.02
2018-05-13T17:44:10.227Z,99730.48
2018-05-13T17:46:37.622Z,99731.58
2018-05-13T17:49:05.021Z,99732.24
2018-05-13T17:51:32.400Z,99737.14
2018-05-13T17:53:59.788Z,99727.52
2018-05-13T17:56:27.160Z,99729.67
2018-05-13T17:58:54.544Z,99728.18
2018-05-13T18:01:21.924Z,99732.78
2018-05-13T18:03:49.347Z,99729.39
2018-05-13T18:06:16.730Z,99734.55
2018-05-13T18:08:44.121Z,99736.84
2018-05-13T18:11:11.511Z,99735.11
2018-05-13T18:13:38.908Z,99739.71
2018-05-13T18:16:06.287Z,99733.34
2018-05-13T18:18:33.716Z,99733.48
2018-05-13T18:21:01.051Z,99748.82
2018-05-13T18:23:28.439Z,99738.51
2018-05-13T18:25:55.827Z,99741.61
2018-05-13T18:28:23.242Z,99733.73
2018-05-13T18:30:51.207Z,99730.66
2018-05-13T18:33:18.600Z,99744.07
2018-05-13T18:35:45.991Z,99749.09
2018-05-13T18:38:13.401Z,99754.95
2018-05-13T18:40:40.772Z,99756.16
2018-05-13T18:43:08.151Z,99760.52
2018-05-13T18:45:35.540Z,99769.29
2018-05-13T18:48:02.918Z,99777.01
2018-05-13T18:50:30.316Z,99779.55
2018-05-13T18:52:57.784Z,99782.25
2018-05-13T18:55:25.173Z,99781.62
2018-05-13T18:57:52.544Z,99797.78
2018-05-13T19:00:19.994Z,99806.91
2018-05-13T19:02:47.396Z,99807.03
2018-05-13T19:05:14.788Z,99800.78
2018-05-13T19:07:42.168Z,99790.34
2018-05-13T19:10:09.716Z,99809.45
2018-05-13T19:12:37.081Z,99814.33
2018-05-13T19:15:04.475Z,99817.16
2018-05-13T19:17:33.045Z,99813.67
2018-05-13T19:20:00.414Z,99825.30
2018-05-13T19:22:27.826Z,99826.91
2018-05-13T19:24:55.215Z,99842.77
2018-05-13T19:27:22.595Z,99853.45
2018-05-13T19:29:50.008Z,99846.95
2018-05-13T19:32:17.377Z,99852.64
2018-05-13T19:34:44.780Z,99851.28
2018-05-13T19:37:12.164Z,99855.78
2018-05-13T19:39:39.576Z,99861.84
2018-05-13T19:42:06.977Z,99857.20
2018-05-13T19:44:34.397Z,99860.33
2018-05-13T19:47:01.772Z,99862.63
2018-05-13T19:49:29.175Z,99865.34
2018-05-13T19:51:56.589Z,99870.45
2018-05-13T19:54:23.980Z,99874.57
2018-05-13T19:56:51.360Z,99882.97
2018-05-13T19:59:21.415Z,99874.08
2018-05-13T20:01:49.506Z,99880.91
2018-05-13T20:04:16.939Z,99875.61
2018-05-13T20:06:44.324Z,99880.91
2018-05-13T20:09:11.856Z,99877.39
2018-05-13T20:11:39.324Z,99875.13
2018-05-13T20:14:06.768Z,99882.42
2018-05-13T20:16:34.134Z,99887.13
2018-05-13T20:19:01.524Z,99878.33
2018-05-13T20:21:28.911Z,99879.09
2018-05-13T20:23:56.352Z,99882.62
2018-05-13T20:26:23.733Z,99877.63
2018-05-13T20:28:51.140Z,99877.94
2018-05-13T20:31:18.524Z,99863.69
2018-05-13T20:33:45.929Z,99861.26
2018-05-13T20:36:13.357Z,99853.63
2018-05-13T20:38:40.727Z,99852.62
2018-05-13T20:41:08.118Z,99845.27
2018-05-13T20:43:35.508Z,99818.27
2018-05-13T20:46:02.901Z,99802.66
2018-05-13T20:48:30.308Z,99777.65
2018-05-13T20:50:57.800Z,99778.25
2018-05-13T20:53:25.216Z,99770.70
2018-05-13T20:55:52.603Z,99770.75
2018-05-13T20:58:20.010Z,99755.36
2018-05-13T21:00:47.416Z,99755.55
2018-05-13T21:03:15.703Z,99779.00
2018-05-13T21:05:43.102Z,99775.96
2018-05-13T21:08:10.486Z,99783.16
2018-05-13T21:10:37.934Z,99790.33
2018-05-13T21:13:05.306Z,99796.23
2018-05-13T21:15:33.230Z,99814.55
2018-05-13T21:18:00.630Z,99827.77
2018-05-13T21:20:28.043Z,99842.63
2018-05-13T21:22:55.441Z,99840.94
2018-05-13T21:25:22.821Z,99829.34
2018-05-13T21:27:50.198Z,99814.56
2018-05-13T21:30:17.671Z,99809.95
2018-05-13T21:32:45.032Z,99807.81
2018-05-13T21:35:12.468Z,99800.73
2018-05-13T21:37:39.869Z,99810.09
2018-05-13T21:40:07.285Z,99794.52
2018-05-13T21:42:34.694Z,99768.81
2018-05-13T21:45:02.936Z,99769.39
2018-05-13T21:47:30.333Z,99766.05
2018-05-13T21:52:40.198Z,99765.95
2018-05-13T21:55:17.618Z,99753.12
2018-05-13T22:00:20.981Z,99747.01
2018-05-13T22:02:48.423Z,99742.37
2018-05-13T22:05:15.919Z,99739.86
2018-05-13T22:07:43.382Z,99735.97
2018-05-13T22:10:10.841Z,99727.15
2018-05-13T22:12:38.245Z,99722.02
2018-05-13T22:15:05.661Z,99737.77
2018-05-13T22:17:33.094Z,99732.72
2018-05-13T22:20:00.467Z,99738.16
2018-05-13T22:22:27.888Z,99727.43
2018-05-13T22:24:56.953Z,99718.69
2018-05-13T22:27:24.369Z,99723.23
2018-05-13T22:29:51.825Z,99719.70
2018-05-13T22:32:19.246Z,99732.02
2018-05-13T22:34:46.671Z,99736.92
2018-05-13T22:37:14.036Z,99738.47
2018-05-13T22:39:41.414Z,99735.09
2018-05-13T22:42:08.798Z,99734.11
2018-05-13T22:44:36.172Z,99745.59
2018-05-13T22:47:03.566Z,99763.98
2018-05-13T22:49:30.948Z,99760.97
2018-05-13T22:51:58.336Z,99779.69
2018-05-13T22:54:25.729Z,99796.20
2018-05-13T22:56:53.104Z,99806.38
2018-05-13T22:59:20.475Z,99805.52
2018-05-13T23:01:47.873Z,99812.34
2018-05-13T23:04:15.259Z,99813.83
2018-05-13T23:06:42.650Z,99808.00
2018-05-13T23:09:10.042Z,99826.52
2018-05-13T23:11:37.425Z,99827.75
2018-05-13T23:14:04.809Z,99822.50
2018-05-13T23:16:32.192Z,99821.67
2018-05-13T23:18:59.572Z,99834.19
2018-05-13T23:21:26.951Z,99847.61
2018-05-13T23:23:54.372Z,99846.20
2018-05-13T23:26:21.745Z,99859.27
2018-05-13T23:28:49.128Z,99860.96
2018-05-13T23:31:16.504Z,99844.16
2018-05-13T23:33:43.893Z,99828.27
2018-05-13T23:36:11.267Z,99827.85
2018-05-13T23:38:39.533Z,99830.87
2018-05-13T23:41:06.945Z,99828.47
2018-05-13T23:43:34.363Z,99820.60
2018-05-13T23:46:01.798Z,99825.69
2018-05-13T23:48:29.171Z,99822.47
2018-05-13T23:50:56.553Z,99821.83
2018-05-13T23:53:23.944Z,99818.10
2018-05-13T23:55:51.343Z,99809.45
2018-05-13T23:58:18.716Z,99806.51
